Time;durP1;ratioP1;P1;durP2;ratioP2;P2;SDS_P1;SDS_P2;PMS_P1;PMS_P2;Temp;Humidity;BMP_temperature;BMP_pressure;BME280_temperature;BME280_humidity;BME280_pressure;Samples;Min_cycle;Max_cycle;Signal;HPM_P1;HPM_P2
2023/01/10 00:00:24;;;;;;;7.43;3.58;;;5.10;99.90;;;;;;5016467;28;93484;-32
2023/01/10 00:02:50;;;;;;;10.70;3.80;;;5.00;99.90;;;;;;4997710;28;94629;-33
2023/01/10 00:05:16;;;;;;;17.00;4.38;;;5.00;99.90;;;;;;5016078;27;95395;-32
2023/01/10 00:07:42;;;;;;;12.40;3.78;;;5.00;99.90;;;;;;5015448;28;93483;-31
2023/01/10 00:10:08;;;;;;;7.32;3.92;;;5.10;99.90;;;;;;5017199;27;92954;-32
2023/01/10 00:15:18;;;;;;;11.32;4.18;;;5.10;99.90;;;;;;5019693;28;95534;-32
2023/01/10 00:17:44;;;;;;;9.98;4.25;;;5.10;99.90;;;;;;5019218;28;93421;-31
2023/01/10 00:20:10;;;;;;;9.77;3.60;;;5.10;99.90;;;;;;5020073;28;93240;-34
2023/01/10 00:22:36;;;;;;;15.98;4.43;;;5.10;99.90;;;;;;5019218;28;93857;-32
2023/01/10 00:25:01;;;;;;;8.45;4.18;;;5.10;99.90;;;;;;5019229;28;94232;-32
2023/01/10 00:27:27;;;;;;;9.05;3.80;;;5.10;99.90;;;;;;5026853;27;94154;-34
2023/01/10 00:29:53;;;;;;;10.50;4.13;;;5.10;99.90;;;;;;5025346;27;93649;-32
2023/01/10 00:32:19;;;;;;;8.68;4.32;;;5.10;99.90;;;;;;5001212;28;94297;-32
2023/01/10 00:34:45;;;;;;;6.97;3.38;;;5.00;99.90;;;;;;5018961;27;94332;-32
2023/01/10 00:37:11;;;;;;;11.55;3.63;;;5.00;99.90;;;;;;5019477;27;94522;-31
2023/01/10 00:39:36;;;;;;;10.25;4.05;;;5.00;99.90;;;;;;5018231;28;94201;-34
2023/01/10 00:44:46;;;;;;;13.50;4.72;;;5.00;99.90;;;;;;5018802;28;95401;-35
2023/01/10 00:47:12;;;;;;;7.00;4.43;;;5.00;99.90;;;;;;5020000;28;93192;-31
2023/01/10 00:49:39;;;;;;;18.38;4.32;;;5.00;99.90;;;;;;5018167;28;93085;-31
2023/01/10 00:52:05;;;;;;;11.05;4.97;;;5.00;99.90;;;;;;5019552;28;93461;-33
2023/01/10 00:54:30;;;;;;;10.20;4.88;;;4.90;99.90;;;;;;5017930;28;95758;-32
2023/01/10 00:56:56;;;;;;;11.27;4.53;;;5.00;99.90;;;;;;5019264;28;94651;-32
2023/01/10 00:59:22;;;;;;;10.68;4.43;;;5.00;99.90;;;;;;5018592;28;93877;-33
2023/01/10 01:01:48;;;;;;;17.55;4.55;;;5.00;99.90;;;;;;5018430;28;94115;-32
2023/01/10 01:04:14;;;;;;;10.70;4.28;;;5.10;99.90;;;;;;5017837;28;94938;-32
2023/01/10 01:06:43;;;;;;;16.52;5.45;;;5.10;99.90;;;;;;5018243;28;95432;-31
2023/01/10 01:09:08;;;;;;;;;;;5.20;99.90;;;;;;5019396;28;93284;-32
2023/01/10 01:11:34;;;;;;;16.48;4.25;;;5.20;99.90;;;;;;5020133;28;95077;-32
2023/01/10 01:13:59;;;;;;;20.33;5.72;;;5.20;99.90;;;;;;5017853;28;97123;-32
2023/01/10 01:16:25;;;;;;;13.05;4.72;;;5.20;99.90;;;;;;5019579;28;94502;-34
2023/01/10 01:18:50;;;;;;;19.30;5.45;;;5.10;99.90;;;;;;5018589;28;93101;-33
2023/01/10 01:21:17;;;;;;;15.57;4.47;;;5.10;99.90;;;;;;5025019;27;94842;-33
2023/01/10 01:23:43;;;;;;;22.80;5.20;;;5.10;99.90;;;;;;5022082;27;94624;-33
2023/01/10 01:26:09;;;;;;;10.68;5.60;;;5.10;99.90;;;;;;5018464;28;92688;-33
2023/01/10 01:28:36;;;;;;;16.92;4.78;;;5.10;99.90;;;;;;5018352;28;94684;-30
2023/01/10 01:31:09;;;;;;;18.67;5.10;;;5.00;99.90;;;;;;5018015;28;95613;-32
2023/01/10 01:33:35;;;;;;;12.10;5.38;;;5.00;99.90;;;;;;5017882;28;95545;-31
2023/01/10 01:36:00;;;;;;;17.70;6.18;;;5.00;99.90;;;;;;5019096;28;94539;-32
2023/01/10 01:38:26;;;;;;;13.07;4.50;;;5.00;99.90;;;;;;5018173;28;93077;-33
2023/01/10 01:40:51;;;;;;;14.48;6.00;;;5.00;99.90;;;;;;5017523;28;94907;-31
2023/01/10 01:43:26;;;;;;;13.75;5.60;;;5.00;99.90;;;;;;5017498;28;94708;-32
2023/01/10 01:45:52;;;;;;;8.95;5.47;;;5.00;99.90;;;;;;5019235;28;92544;-32
2023/01/10 01:48:30;;;;;;;10.95;5.25;;;5.00;99.90;;;;;;5018366;28;91393;-33
2023/01/10 01:51:07;;;;;;;16.70;7.67;;;5.10;99.90;;;;;;5018014;28;96235;-33
2023/01/10 01:53:38;;;;;;;18.30;5.28;;;5.10;99.90;;;;;;5018019;28;93463;-32
2023/01/10 01:56:10;;;;;;;26.65;5.68;;;5.10;99.90;;;;;;5017791;28;95805;-32
2023/01/10 01:58:46;;;;;;;15.20;5.85;;;5.10;99.90;;;;;;5018256;28;93061;-32
2023/01/10 02:01:14;;;;;;;21.92;5.63;;;5.10;99.90;;;;;;5017955;28;94826;-30
2023/01/10 02:03:43;;;;;;;15.35;5.78;;;5.10;99.90;;;;;;5017669;28;95733;-32
2023/01/10 02:06:09;;;;;;;20.58;5.35;;;5.20;99.90;;;;;;5017832;28;94476;-34
2023/01/10 02:08:38;;;;;;;14.57;5.88;;;5.10;99.90;;;;;;5018602;28;93165;-31
2023/01/10 02:11:09;;;;;;;25.30;5.80;;;5.10;99.90;;;;;;5017687;28;94103;-31
2023/01/10 02:13:40;;;;;;;25.58;4.88;;;5.10;99.90;;;;;;5018126;28;94462;-35
2023/01/10 02:16:06;;;;;;;15.52;5.82;;;5.10;99.90;;;;;;5017779;28;92485;-34
2023/01/10 02:18:32;;;;;;;12.82;5.53;;;5.10;99.90;;;;;;5018236;28;93014;-33
2023/01/10 02:21:21;;;;;;;15.07;6.07;;;5.10;99.90;;;;;;5016441;27;97196;-33
2023/01/10 02:24:05;;;;;;;14.82;5.32;;;5.10;99.90;;;;;;5016364;27;95740;-32
2023/01/10 02:27:01;;;;;;;16.58;6.53;;;5.10;99.90;;;;;;5017595;28;94401;-32
2023/01/10 02:29:39;;;;;;;14.25;6.28;;;5.10;99.90;;;;;;5007507;28;92167;-32
2023/01/10 02:32:29;;;;;;;23.35;5.47;;;5.20;99.90;;;;;;5018154;28;94453;-33
2023/01/10 02:35:12;;;;;;;15.50;5.68;;;5.10;99.90;;;;;;5015964;28;95129;-31
2023/01/10 02:37:43;;;;;;;20.13;6.05;;;5.10;99.90;;;;;;5017059;28;93456;-31
2023/01/10 02:40:20;;;;;;;13.00;5.72;;;5.10;99.90;;;;;;5016804;28;93053;-34
2023/01/10 02:42:57;;;;;;;14.90;6.00;;;5.10;99.90;;;;;;5016852;28;95137;-32
2023/01/10 02:45:32;;;;;;;16.27;6.00;;;5.00;99.90;;;;;;5017256;28;94552;-31
2023/01/10 02:47:58;;;;;;;16.60;5.45;;;5.00;99.90;;;;;;5017397;28;93057;-31
2023/01/10 02:50:40;;;;;;;14.15;6.03;;;4.90;99.90;;;;;;5016906;28;95081;-31
2023/01/10 02:53:22;;;;;;;16.10;6.20;;;5.00;99.90;;;;;;5016685;28;94648;-33
2023/01/10 02:56:17;;;;;;;19.33;5.68;;;4.90;99.90;;;;;;5017320;28;94678;-32
2023/01/10 02:59:27;;;;;;;14.27;5.88;;;4.80;99.90;;;;;;5005416;28;94337;-31
2023/01/10 03:02:02;;;;;;;16.67;5.05;;;4.80;99.90;;;;;;5014067;27;93580;-33
2023/01/10 03:04:44;;;;;;;16.63;6.55;;;4.80;99.90;;;;;;5016781;28;96356;-32
2023/01/10 03:07:38;;;;;;;13.77;6.05;;;4.80;99.90;;;;;;5005417;28;93259;-33
2023/01/10 03:10:16;;;;;;;14.02;5.00;;;4.70;99.90;;;;;;5016836;28;94822;-31
2023/01/10 03:12:55;;;;;;;21.52;6.20;;;4.80;99.90;;;;;;5016208;28;92677;-34
2023/01/10 03:15:26;;;;;;;14.80;5.35;;;4.80;99.90;;;;;;5016231;28;95705;-32
2023/01/10 03:17:57;;;;;;;11.15;6.13;;;4.80;99.90;;;;;;5016431;28;95515;-31
2023/01/10 03:20:23;;;;;;;24.17;7.43;;;4.80;99.90;;;;;;5016931;27;94570;-32
2023/01/10 03:22:51;;;;;;;18.40;6.43;;;4.90;99.90;;;;;;5015811;28;93567;-33
2023/01/10 03:25:23;;;;;;;12.80;5.17;;;4.80;99.90;;;;;;5016743;28;94810;-32
2023/01/10 03:28:18;;;;;;;16.27;5.25;;;4.80;99.90;;;;;;5016162;28;94270;-33
2023/01/10 03:31:04;;;;;;;13.30;5.13;;;4.90;99.90;;;;;;5014145;27;94403;-34
2023/01/10 03:33:32;;;;;;;13.57;5.45;;;4.90;99.90;;;;;;5017591;28;92240;-31
2023/01/10 03:36:08;;;;;;;18.10;5.65;;;4.80;99.90;;;;;;5015541;28;95525;-32
2023/01/10 03:38:45;;;;;;;17.08;6.50;;;4.80;99.90;;;;;;5003223;27;94093;-33
2023/01/10 03:41:15;;;;;;;14.48;6.05;;;4.80;99.90;;;;;;5015406;28;94796;-32
2023/01/10 03:46:57;;;;;;;17.10;5.47;;;4.80;99.90;;;;;;4980131;28;94967;-31
2023/01/10 03:49:26;;;;;;;19.63;6.00;;;4.80;99.90;;;;;;5016222;27;94672;-32
2023/01/10 03:51:53;;;;;;;24.50;6.90;;;4.80;99.90;;;;;;5016958;28;92855;-30
2023/01/10 03:54:19;;;;;;;18.20;5.40;;;4.80;99.90;;;;;;5015367;28;92267;-33
2023/01/10 03:56:48;;;;;;;11.70;4.85;;;4.80;99.90;;;;;;5015954;27;93507;-34
2023/01/10 03:59:18;;;;;;;11.30;5.18;;;4.80;99.90;;;;;;5015942;27;95069;-32
2023/01/10 04:01:44;;;;;;;10.32;5.95;;;4.80;99.90;;;;;;5016830;28;92804;-33
2023/01/10 04:04:10;;;;;;;16.98;5.63;;;4.80;99.90;;;;;;5028908;27;94340;-33
2023/01/10 04:06:36;;;;;;;21.08;5.90;;;4.90;99.90;;;;;;5014931;28;95593;-34
2023/01/10 04:09:02;;;;;;;22.02;6.50;;;4.90;99.90;;;;;;5015860;28;95491;-32
2023/01/10 04:11:27;;;;;;;15.05;6.00;;;4.90;99.90;;;;;;4998098;28;92506;-32
2023/01/10 04:13:53;;;;;;;18.10;6.35;;;4.90;99.90;;;;;;5015586;28;94857;-31
2023/01/10 04:16:19;;;;;;;10.60;4.53;;;5.00;99.90;;;;;;5016173;28;94561;-31
2023/01/10 04:18:44;;;;;;;15.10;4.75;;;5.00;99.90;;;;;;5014423;28;94318;-34
2023/01/10 04:21:10;;;;;;;11.13;5.10;;;5.10;99.90;;;;;;5016987;28;94489;-32
2023/01/10 04:23:36;;;;;;;16.55;6.03;;;5.10;99.90;;;;;;5015425;28;93516;-34
2023/01/10 04:26:01;;;;;;;18.98;5.45;;;5.10;99.90;;;;;;5016406;28;94850;-33
2023/01/10 04:28:27;;;;;;;20.58;4.97;;;5.10;99.90;;;;;;5015158;28;94596;-34
2023/01/10 04:30:53;;;;;;;16.13;5.68;;;5.10;99.90;;;;;;5014919;28;95118;-32
2023/01/10 04:33:18;;;;;;;11.98;5.07;;;5.10;99.90;;;;;;5017164;27;92252;-31
2023/01/10 04:35:48;;;;;;;18.40;5.22;;;5.10;99.90;;;;;;5014736;28;94580;-32
2023/01/10 04:38:14;;;;;;;14.57;5.22;;;5.20;99.90;;;;;;5014404;28;95391;-32
2023/01/10 04:40:40;;;;;;;9.80;5.32;;;5.20;99.90;;;;;;4997746;28;92273;-31
2023/01/10 04:43:06;;;;;;;24.98;6.13;;;5.20;99.90;;;;;;5017182;27;93813;-34
2023/01/10 04:45:32;;;;;;;16.13;5.15;;;5.20;99.90;;;;;;5015573;28;94793;-33
2023/01/10 04:47:59;;;;;;;10.43;4.95;;;5.30;99.90;;;;;;5014876;28;95502;-31
2023/01/10 04:50:25;;;;;;;13.77;5.43;;;5.40;99.90;;;;;;5015648;28;93201;-31
2023/01/10 04:52:51;;;;;;;14.80;5.18;;;5.40;99.90;;;;;;5014781;28;92301;-34
2023/01/10 04:55:17;;;;;;;10.65;4.53;;;5.50;99.90;;;;;;5015110;28;96448;-33
2023/01/10 04:57:43;;;;;;;19.35;6.70;;;5.50;99.90;;;;;;5017038;27;96283;-31
2023/01/10 05:00:10;;;;;;;10.95;5.28;;;5.50;99.90;;;;;;5020095;28;94750;-33
2023/01/10 05:02:41;;;;;;;16.00;6.47;;;5.40;99.90;;;;;;5019427;28;93819;-33
2023/01/10 05:05:07;;;;;;;21.83;6.45;;;5.30;99.90;;;;;;5019162;28;94386;-32
2023/01/10 05:07:33;;;;;;;19.27;5.82;;;5.40;99.90;;;;;;5018373;28;92633;-31
2023/01/10 05:09:58;;;;;;;10.25;4.57;;;5.30;99.90;;;;;;5019565;28;94543;-35
2023/01/10 05:12:24;;;;;;;12.90;5.85;;;5.30;99.90;;;;;;5019151;28;92430;-32
2023/01/10 05:14:49;;;;;;;14.98;5.60;;;5.30;99.90;;;;;;5018497;28;94685;-33
2023/01/10 05:17:15;;;;;;;16.45;5.18;;;5.30;99.90;;;;;;5018150;27;93230;-32
2023/01/10 05:19:40;;;;;;;14.02;4.97;;;5.40;99.90;;;;;;5029888;27;95882;-34
2023/01/10 05:22:06;;;;;;;11.23;4.95;;;5.30;99.90;;;;;;5019967;27;94068;-32
2023/01/10 05:24:31;;;;;;;13.68;4.88;;;5.30;99.90;;;;;;5018564;28;94847;-32
2023/01/10 05:26:57;;;;;;;15.80;5.47;;;5.30;99.90;;;;;;5018314;28;94358;-32
2023/01/10 05:29:23;;;;;;;21.73;5.45;;;5.30;99.90;;;;;;5018309;28;94389;-31
2023/01/10 05:31:50;;;;;;;17.38;6.22;;;5.40;99.90;;;;;;5018386;28;92439;-32
2023/01/10 05:34:15;;;;;;;23.30;6.40;;;5.40;99.90;;;;;;5018866;28;94139;-31
2023/01/10 05:36:41;;;;;;;14.35;6.38;;;5.40;99.90;;;;;;5017846;28;94608;-32
2023/01/10 05:39:07;;;;;;;17.00;5.45;;;5.40;99.90;;;;;;5018542;28;94185;-35
2023/01/10 05:41:32;;;;;;;19.23;6.15;;;5.40;99.90;;;;;;5017814;27;95048;-33
2023/01/10 05:43:58;;;;;;;19.55;6.20;;;5.40;99.90;;;;;;5017303;28;95755;-33
2023/01/10 05:46:24;;;;;;;16.80;5.88;;;5.40;99.90;;;;;;5018297;28;95152;-32
2023/01/10 05:48:51;;;;;;;31.00;6.03;;;5.40;99.90;;;;;;5018295;28;94011;-32
2023/01/10 05:51:17;;;;;;;13.70;5.83;;;5.40;99.90;;;;;;5017956;28;93493;-31
2023/01/10 05:53:43;;;;;;;24.73;7.10;;;5.40;99.90;;;;;;4999469;28;94451;-30
2023/01/10 05:56:09;;;;;;;19.90;7.53;;;5.50;99.90;;;;;;5017323;28;92570;-34
2023/01/10 05:58:35;;;;;;;21.35;6.38;;;5.50;99.90;;;;;;5018667;28;94413;-30
2023/01/10 06:01:00;;;;;;;20.08;5.65;;;5.50;99.90;;;;;;5018310;28;91679;-32
2023/01/10 06:03:26;;;;;;;22.30;6.13;;;5.40;99.90;;;;;;5018242;28;95803;-34
2023/01/10 06:05:55;;;;;;;20.33;6.78;;;5.50;99.90;;;;;;5016996;28;94323;-31
2023/01/10 06:08:21;;;;;;;25.92;7.00;;;5.50;99.90;;;;;;5017129;27;95100;-31
2023/01/10 06:10:47;;;;;;;17.67;6.25;;;5.50;99.90;;;;;;5016990;28;93633;-30
2023/01/10 06:13:13;;;;;;;18.08;7.15;;;5.40;99.90;;;;;;5017247;28;93412;-33
2023/01/10 06:15:39;;;;;;;13.35;6.28;;;5.40;99.90;;;;;;5016388;28;94239;-31
2023/01/10 06:18:04;;;;;;;18.95;6.68;;;5.40;99.90;;;;;;5018535;28;94617;-33
2023/01/10 06:20:30;;;;;;;15.60;6.75;;;5.40;99.90;;;;;;5017273;28;93461;-32
2023/01/10 06:22:57;;;;;;;27.95;6.68;;;5.40;99.90;;;;;;5017533;28;94342;-32
2023/01/10 06:25:23;;;;;;;20.90;6.55;;;5.40;99.90;;;;;;5018393;28;93875;-34
2023/01/10 06:27:48;;;;;;;16.85;6.38;;;5.30;99.90;;;;;;5017618;28;93382;-34
2023/01/10 06:30:14;;;;;;;20.35;7.38;;;5.30;99.90;;;;;;5022334;27;92351;-32
2023/01/10 06:32:41;;;;;;;28.38;7.82;;;5.40;99.90;;;;;;5024119;27;95525;-32
2023/01/10 06:35:07;;;;;;;20.02;7.50;;;5.40;99.90;;;;;;5017386;28;95034;-32
2023/01/10 06:37:33;;;;;;;20.02;6.30;;;5.40;99.90;;;;;;5018271;28;92701;-32
2023/01/10 06:39:58;;;;;;;21.08;7.88;;;5.40;99.90;;;;;;5016448;28;94562;-31
2023/01/10 06:42:24;;;;;;;23.38;7.00;;;5.40;99.90;;;;;;5017839;28;94757;-31
2023/01/10 06:44:50;;;;;;;26.65;7.53;;;5.50;99.90;;;;;;5016498;27;94528;-31
2023/01/10 06:47:15;;;;;;;25.13;7.53;;;5.50;99.90;;;;;;5017681;28;93444;-34
2023/01/10 06:49:41;;;;;;;16.58;6.93;;;5.60;99.90;;;;;;5017805;28;93886;-34
2023/01/10 06:52:06;;;;;;;21.27;7.50;;;5.50;99.90;;;;;;5016424;28;95027;-33
2023/01/10 06:54:32;;;;;;;21.70;7.45;;;5.50;99.90;;;;;;5016721;28;94670;-31
2023/01/10 06:56:57;;;;;;;22.73;7.18;;;5.50;99.90;;;;;;5016490;28;93718;-32
2023/01/10 06:59:23;;;;;;;20.92;8.05;;;5.40;99.90;;;;;;5015854;28;94503;-32
2023/01/10 07:01:48;;;;;;;23.75;7.22;;;5.50;99.90;;;;;;5017461;28;94632;-31
2023/01/10 07:04:14;;;;;;;15.70;7.50;;;5.50;99.90;;;;;;5016268;28;94637;-32
2023/01/10 07:06:40;;;;;;;18.60;8.05;;;5.50;99.90;;;;;;5017270;28;93096;-31
2023/01/10 07:09:06;;;;;;;22.17;6.78;;;5.60;99.90;;;;;;5016870;28;94160;-33
2023/01/10 07:11:33;;;;;;;22.00;8.57;;;5.60;99.90;;;;;;5026787;27;95022;-32
2023/01/10 07:14:02;;;;;;;11.07;6.32;;;5.60;99.90;;;;;;4996906;28;96482;-31
2023/01/10 07:16:28;;;;;;;21.88;8.80;;;5.60;99.90;;;;;;5016671;28;93892;-33
2023/01/10 07:18:53;;;;;;;22.25;8.75;;;5.60;99.90;;;;;;5016185;28;94064;-34
2023/01/10 07:21:19;;;;;;;12.75;7.03;;;5.70;99.90;;;;;;5016677;28;95653;-32
2023/01/10 07:23:48;;;;;;;16.63;6.78;;;5.70;99.90;;;;;;5015982;28;95443;-32
2023/01/10 07:26:16;;;;;;;15.63;6.68;;;5.70;99.90;;;;;;5016044;28;94127;-32
2023/01/10 07:28:49;;;;;;;18.20;8.30;;;5.70;99.90;;;;;;5015264;28;92508;-33
2023/01/10 07:31:16;;;;;;;18.60;7.57;;;5.80;99.90;;;;;;5013265;28;94112;-31
2023/01/10 07:33:42;;;;;;;18.92;7.13;;;5.70;99.90;;;;;;5015116;28;94421;-31
2023/01/10 07:36:08;;;;;;;22.60;7.05;;;5.70;99.90;;;;;;5015874;28;93465;-33
2023/01/10 07:38:34;;;;;;;16.92;6.82;;;5.70;99.90;;;;;;5015624;28;91481;-32
2023/01/10 07:41:03;;;;;;;26.05;7.75;;;5.70;99.90;;;;;;5014868;28;94907;-31
2023/01/10 07:43:29;;;;;;;14.32;6.80;;;5.70;99.90;;;;;;5014950;27;95605;-32
2023/01/10 07:46:03;;;;;;;21.45;7.13;;;5.70;99.90;;;;;;5015667;28;95304;-31
2023/01/10 07:48:29;;;;;;;20.17;7.90;;;5.80;99.90;;;;;;5015810;28;94974;-35
2023/01/10 07:50:57;;;;;;;20.00;6.13;;;5.70;99.90;;;;;;5016224;28;94677;-32
2023/01/10 07:53:22;;;;;;;17.77;5.85;;;5.70;99.90;;;;;;5015553;28;94409;-33
2023/01/10 07:55:49;;;;;;;20.92;7.10;;;5.70;99.90;;;;;;5016226;28;92143;-32
2023/01/10 07:58:14;;;;;;;28.67;8.18;;;5.70;99.90;;;;;;5005073;28;92801;-32
2023/01/10 08:00:40;;;;;;;20.40;8.13;;;5.70;99.90;;;;;;5015078;28;95165;-33
2023/01/10 08:03:05;;;;;;;30.45;7.88;;;5.70;99.90;;;;;;5015999;28;94617;-33
2023/01/10 08:05:31;;;;;;;15.63;6.35;;;5.70;99.90;;;;;;5015299;28;93947;-31
2023/01/10 08:08:06;;;;;;;20.23;7.90;;;5.70;99.90;;;;;;5015407;28;94708;-31
2023/01/10 08:10:33;;;;;;;16.48;7.25;;;5.70;99.90;;;;;;5013209;28;95386;-31
2023/01/10 08:12:59;;;;;;;20.13;7.55;;;5.70;99.90;;;;;;5015126;28;96321;-31
2023/01/10 08:15:25;;;;;;;26.02;8.73;;;5.70;99.90;;;;;;5016168;28;94517;-31
2023/01/10 08:17:51;;;;;;;17.48;6.95;;;5.70;99.90;;;;;;5015237;28;94564;-32
2023/01/10 08:20:16;;;;;;;21.63;6.65;;;5.70;99.90;;;;;;5015584;28;94827;-34
2023/01/10 08:22:42;;;;;;;20.30;7.65;;;5.70;99.90;;;;;;5015537;28;94883;-33
2023/01/10 08:25:08;;;;;;;25.50;8.15;;;5.70;99.90;;;;;;5014977;28;93375;-31
2023/01/10 08:27:34;;;;;;;29.00;8.50;;;5.70;99.90;;;;;;4998590;28;94456;-32
2023/01/10 08:30:00;;;;;;;15.48;6.75;;;5.80;99.90;;;;;;5014403;28;95504;-31
2023/01/10 08:32:25;;;;;;;16.38;7.07;;;5.80;99.90;;;;;;5018458;27;94520;-32
2023/01/10 08:34:51;;;;;;;17.48;6.47;;;5.80;99.90;;;;;;5018746;28;93291;-31
2023/01/10 08:37:16;;;;;;;22.92;7.35;;;5.90;99.90;;;;;;5018682;28;94457;-32
2023/01/10 08:39:42;;;;;;;22.83;7.43;;;5.90;99.90;;;;;;5018257;28;94788;-32
2023/01/10 08:42:08;;;;;;;17.15;7.65;;;6.00;99.90;;;;;;5018422;28;94667;-31
2023/01/10 08:44:34;;;;;;;21.65;7.95;;;6.00;99.90;;;;;;5019109;28;94034;-32
2023/01/10 08:47:00;;;;;;;27.63;8.15;;;6.10;99.90;;;;;;5018954;28;93207;-30
2023/01/10 08:49:26;;;;;;;12.70;6.43;;;6.10;99.90;;;;;;5018275;28;94632;-33
2023/01/10 08:51:51;;;;;;;29.10;8.48;;;6.10;99.90;;;;;;5019459;27;94530;-32
2023/01/10 08:54:17;;;;;;;25.98;8.98;;;6.10;99.90;;;;;;5017949;28;92572;-31
2023/01/10 08:56:42;;;;;;;20.15;7.85;;;6.10;99.90;;;;;;5019286;28;94772;-32
2023/01/10 08:59:08;;;;;;;19.17;8.05;;;6.20;99.90;;;;;;5017642;27;95593;-31
2023/01/10 09:01:34;;;;;;;21.33;7.32;;;6.20;99.90;;;;;;5016421;28;96786;-32
2023/01/10 09:03:59;;;;;;;17.98;7.07;;;6.20;99.90;;;;;;5019442;28;93191;-31
2023/01/10 09:06:25;;;;;;;36.28;9.07;;;6.20;99.90;;;;;;5018454;28;93588;-31
2023/01/10 09:08:50;;;;;;;20.65;7.35;;;6.20;99.90;;;;;;5018918;28;94907;-30
2023/01/10 09:11:16;;;;;;;21.45;7.57;;;6.30;99.90;;;;;;5017933;28;94118;-31
2023/01/10 09:13:42;;;;;;;20.70;8.55;;;6.30;99.90;;;;;;5019321;28;93755;-31
2023/01/10 09:16:08;;;;;;;18.80;7.72;;;6.30;99.90;;;;;;5000759;28;93849;-32
2023/01/10 09:18:34;;;;;;;24.98;8.15;;;6.40;99.90;;;;;;5018559;28;94787;-34
2023/01/10 09:21:01;;;;;;;21.52;7.65;;;6.30;99.90;;;;;;5018623;28;94565;-32
2023/01/10 09:23:27;;;;;;;16.20;6.47;;;6.30;99.90;;;;;;5018354;28;96098;-33
2023/01/10 09:25:56;;;;;;;24.88;7.57;;;6.30;99.90;;;;;;5018248;28;94541;-35
2023/01/10 09:28:23;;;;;;;22.48;8.02;;;6.20;99.90;;;;;;5018491;28;94404;-31
2023/01/10 09:30:49;;;;;;;22.75;8.27;;;6.20;99.90;;;;;;5018295;28;94014;-31
2023/01/10 09:33:15;;;;;;;30.63;7.60;;;6.20;99.90;;;;;;5018309;28;92181;-31
2023/01/10 09:35:42;;;;;;;19.75;7.82;;;6.20;99.90;;;;;;5017986;28;92179;-33
2023/01/10 09:38:13;;;;;;;25.83;7.43;;;6.30;99.90;;;;;;5017942;28;94890;-32
2023/01/10 09:40:57;;;;;;;22.02;7.60;;;6.30;99.90;;;;;;5012102;22;1141285;-31
2023/01/10 09:43:45;;;;;;;28.05;8.07;;;6.40;99.90;;;;;;5016980;27;92880;-33
2023/01/10 09:46:19;;;;;;;;;;;6.40;99.90;;;;;;5018046;28;94506;-31
2023/01/10 09:48:58;;;;;;;24.05;6.80;;;6.40;99.90;;;;;;5017216;28;95538;-33
2023/01/10 09:51:42;;;;;;;23.27;7.80;;;6.40;99.90;;;;;;5017666;28;95745;-30
2023/01/10 09:54:23;;;;;;;24.63;7.75;;;6.50;99.90;;;;;;5011237;28;94689;-31
2023/01/10 09:56:49;;;;;;;26.10;8.20;;;6.50;99.90;;;;;;5017866;28;93147;-31
2023/01/10 09:59:18;;;;;;;13.88;7.07;;;6.60;99.90;;;;;;5016931;28;94754;-32
2023/01/10 10:01:47;;;;;;;19.73;8.35;;;6.60;99.90;;;;;;5017414;28;94864;-31
2023/01/10 10:04:34;;;;;;;18.60;6.57;;;6.70;99.90;;;;;;5017827;28;92170;-34
2023/01/10 10:06:59;;;;;;;19.10;7.43;;;6.70;99.90;;;;;;5018460;28;91368;-31
2023/01/10 10:09:28;;;;;;;26.52;9.43;;;6.80;99.90;;;;;;5017116;28;94836;-33
2023/01/10 10:12:22;;;;;;;14.52;7.63;;;6.80;99.90;;;;;;5016662;28;95493;-31
2023/01/10 10:15:15;;;;;;;19.67;8.98;;;6.90;99.90;;;;;;5016862;28;95476;-32
2023/01/10 10:17:48;;;;;;;25.52;8.85;;;6.90;99.90;;;;;;5017210;28;92071;-34
2023/01/10 10:20:29;;;;;;;20.48;10.70;;;6.90;99.90;;;;;;4999307;28;94768;-34
2023/01/10 10:23:07;;;;;;;25.52;9.27;;;6.90;99.90;;;;;;5016931;28;94160;-31
2023/01/10 10:25:49;;;;;;;25.27;9.27;;;7.00;99.90;;;;;;5017061;28;92994;-31
2023/01/10 10:29:01;;;;;;;25.30;10.20;;;7.10;99.90;;;;;;5015775;28;94494;-33
2023/01/10 10:31:39;;;;;;;27.38;10.05;;;7.10;99.90;;;;;;5017003;27;93095;-32
2023/01/10 10:34:25;;;;;;;20.60;9.65;;;7.10;99.90;;;;;;5017073;28;94560;-33
2023/01/10 10:36:56;;;;;;;27.98;10.52;;;7.10;99.90;;;;;;5004113;28;93385;-33
2023/01/10 10:39:29;;;;;;;26.13;10.45;;;7.10;99.90;;;;;;5015432;27;92313;-32
2023/01/10 10:41:55;;;;;;;27.88;11.65;;;7.10;99.90;;;;;;5015860;28;95728;-32
2023/01/10 10:44:27;;;;;;;24.08;11.65;;;7.10;99.90;;;;;;5016111;28;95772;-35
2023/01/10 10:46:55;;;;;;;32.30;12.02;;;7.20;99.90;;;;;;5016867;28;93330;-33
2023/01/10 10:49:28;;;;;;;29.63;11.77;;;7.20;99.90;;;;;;5015858;28;92869;-33
2023/01/10 10:51:54;;;;;;;25.92;11.50;;;7.20;99.90;;;;;;5015897;28;94558;-32
2023/01/10 10:54:19;;;;;;;30.20;12.38;;;7.20;99.90;;;;;;5015391;28;94950;-30
2023/01/10 10:56:46;;;;;;;28.83;12.18;;;7.20;99.90;;;;;;5016792;27;92868;-34
2023/01/10 10:59:20;;;;;;;29.35;11.77;;;7.20;99.90;;;;;;5017027;28;93652;-31
2023/01/10 11:01:48;;;;;;;21.50;10.82;;;7.20;99.90;;;;;;5015843;28;94348;-34
2023/01/10 11:04:17;;;;;;;20.10;11.50;;;7.20;99.90;;;;;;5015873;27;93602;-33
2023/01/10 11:06:47;;;;;;;27.85;12.30;;;7.30;99.90;;;;;;5015729;28;95284;-33
2023/01/10 11:09:17;;;;;;;20.38;9.10;;;7.30;99.90;;;;;;4997221;28;95460;-32
2023/01/10 11:11:46;;;;;;;27.67;11.80;;;7.30;99.90;;;;;;5015604;28;94384;-33
2023/01/10 11:14:11;;;;;;;;;;;7.30;99.90;;;;;;5015927;28;94515;-34
2023/01/10 11:16:39;;;;;;;30.73;11.20;;;7.30;99.90;;;;;;5017721;28;94100;-32
2023/01/10 11:19:16;;;;;;;27.83;8.77;;;7.30;99.90;;;;;;5016036;28;93887;-31
2023/01/10 11:21:47;;;;;;;22.33;9.88;;;7.30;99.90;;;;;;5015857;28;95465;-32
2023/01/10 11:24:38;;;;;;;16.98;9.10;;;7.30;99.90;;;;;;5016858;28;94087;-32
2023/01/10 11:27:28;;;;;;;23.95;10.75;;;7.30;99.90;;;;;;4998280;28;94640;-32
2023/01/10 11:30:05;;;;;;;24.52;12.57;;;7.40;99.90;;;;;;5011069;28;93446;-32
2023/01/10 11:32:38;;;;;;;24.05;10.43;;;7.30;99.90;;;;;;5014865;28;96424;-34
2023/01/10 11:35:16;;;;;;;34.08;11.10;;;7.30;99.90;;;;;;5016378;28;95514;-31
2023/01/10 11:37:42;;;;;;;17.75;8.63;;;7.30;99.90;;;;;;5009055;28;92299;-32
2023/01/10 11:40:24;;;;;;;20.58;11.07;;;7.40;99.90;;;;;;5015854;28;94378;-32
2023/01/10 11:42:53;;;;;;;23.92;11.10;;;7.40;99.90;;;;;;5015368;28;93713;-33
2023/01/10 11:45:19;;;;;;;22.30;10.23;;;7.40;99.90;;;;;;5015743;28;94506;-31
2023/01/10 11:47:53;;;;;;;28.30;10.35;;;7.40;99.90;;;;;;5015376;28;94552;-31
2023/01/10 11:50:22;;;;;;;21.55;9.32;;;7.30;99.90;;;;;;4998028;28;91846;-32
2023/01/10 11:52:49;;;;;;;20.67;8.55;;;7.40;99.90;;;;;;5015712;28;94599;-33
2023/01/10 11:55:21;;;;;;;26.55;9.27;;;7.40;99.90;;;;;;5015379;28;94292;-33
2023/01/10 11:57:56;;;;;;;29.98;9.75;;;7.50;99.90;;;;;;5015861;28;93654;-31
2023/01/10 12:00:29;;;;;;;28.98;8.80;;;7.40;99.90;;;;;;5016071;28;93964;-33
2023/01/10 12:02:55;;;;;;;25.80;9.88;;;7.40;99.90;;;;;;5015486;28;94506;-32
2023/01/10 12:05:22;;;;;;;21.98;9.52;;;7.40;99.90;;;;;;5015243;28;93999;-32
2023/01/10 12:08:05;;;;;;;38.70;9.57;;;7.40;99.90;;;;;;5015522;28;94510;-34
2023/01/10 12:10:32;;;;;;;30.52;9.82;;;7.40;99.90;;;;;;5015935;28;94800;-32
2023/01/10 12:12:59;;;;;;;29.60;9.68;;;7.50;99.90;;;;;;5015596;28;94794;-33
2023/01/10 12:15:30;;;;;;;26.42;8.55;;;7.40;99.90;;;;;;5015868;28;94416;-34
2023/01/10 12:17:59;;;;;;;16.33;7.47;;;7.50;99.90;;;;;;5015479;28;92781;-34
2023/01/10 12:20:31;;;;;;;25.15;8.25;;;7.50;99.90;;;;;;5015718;28;92100;-33
2023/01/10 12:23:12;;;;;;;27.70;9.50;;;7.50;99.90;;;;;;5006257;28;95466;-31
2023/01/10 12:25:40;;;;;;;23.38;8.60;;;7.40;99.90;;;;;;5010524;28;96127;-33
2023/01/10 12:28:23;;;;;;;20.83;9.05;;;7.40;99.90;;;;;;5015211;28;94278;-32
2023/01/10 12:30:52;;;;;;;23.10;8.75;;;7.30;99.90;;;;;;5015318;28;92264;-31
2023/01/10 12:33:25;;;;;;;18.45;7.70;;;7.30;99.90;;;;;;5016035;28;93017;-33
2023/01/10 12:36:13;;;;;;;24.17;7.88;;;7.30;99.90;;;;;;5007068;28;94784;-32
2023/01/10 12:45:05;;;;;;;25.30;8.65;;;7.20;99.90;;;;;;5014013;28;94607;-35
2023/01/10 12:47:59;;;;;;;25.80;7.87;;;7.30;99.90;;;;;;5015919;28;94007;-31
2023/01/10 12:50:31;;;;;;;15.88;6.93;;;7.20;99.90;;;;;;5014606;28;95230;-31
2023/01/10 12:53:29;;;;;;;19.98;7.97;;;7.30;99.90;;;;;;5014665;28;93962;-31
2023/01/10 12:55:57;;;;;;;22.85;8.18;;;7.30;99.90;;;;;;4977491;28;94895;-32
2023/01/10 12:58:34;;;;;;;17.20;7.95;;;7.20;99.90;;;;;;5015885;28;95137;-31
2023/01/10 13:01:02;;;;;;;22.35;8.38;;;7.10;99.90;;;;;;5015250;28;94227;-32
2023/01/10 13:03:30;;;;;;;13.27;5.70;;;7.10;99.90;;;;;;5015134;28;93016;-33
2023/01/10 13:05:57;;;;;;;19.05;7.90;;;7.20;99.90;;;;;;5013785;28;94881;-32
2023/01/10 13:08:26;;;;;;;21.67;7.63;;;7.30;99.90;;;;;;5016091;28;93813;-32
2023/01/10 13:10:54;;;;;;;16.40;7.55;;;7.20;99.90;;;;;;5015537;28;92645;-33
2023/01/10 13:13:45;;;;;;;24.40;7.55;;;7.20;99.90;;;;;;5015345;28;94674;-31
2023/01/10 13:16:32;;;;;;;15.85;7.05;;;7.20;99.90;;;;;;5014601;27;94892;-32